Terminal Aerodrome Forecast
Issued by NWS Detroit/Pontiac, MI

Home | Current Version | Previous Version | Text Only | Print | Product List | Glossary On
Versions: 1 2 3 4 5 6 7 8 9 10 11 12 13 14 15 16 17 18 19
269
FTUS43 KDTX 121740
TAFFNT
TAF
KFNT 121740Z 1218/1318 27016G26KT 5SM -SHSN BKN025 OVC040
      TEMPO 1218/1219 2SM -SHSN BKN022 OVC035
     FM121900 30017G28KT P6SM -SHSN SCT028 OVC035
      TEMPO 1219/1223 2SM -SHSN BKN028 OVC035
     FM130200 32014G24KT P6SM SCT020 BKN035
     FM130600 32011KT P6SM BKN040
     FM131500 31010KT P6SM BKN035=

USA.gov is the U.S. government's official web portal to all federal, state and local government web resources and services.